Aeroporto :
LOGIN :

Iscrizione | Disclaimer

   EN    FR    IT 

 










Sommario :    VFR   VFR Marginale   IFR   IFR Intensivo   IFR Molto Intensivo
Visibilità : 
Base nubi : 
>= 8 km
>= 3000ft
5 / 8 km
1000 / 3000 ft
1500m / 5 km
500 / 1000 ft
800 / 1500m
200 / 500 ft
< 800m
< 200 ft
Simboli :   Temporali  Nebbia  Neve Forte  Precipitazioni Forti  Vento > 20 kt
SIGMETs :   Varie  Temporali  Ghiacco  Turbolenza  Onda orograficha  Ceneri Vulcaniche







- Altitudine del aeroporto : 325 ft
- Codice IATA : BES
- Carte del aeroporto


LFRB - Brest

ULTIMO METAR :
  • 191200Z AUTO 35011KT 9999 FEW028 17/09 Q1012 TEMPO SHRA SCT015TCU

METARs OBSOLETI :
  • 191130Z AUTO 33011KT 290V360 9999 FEW029 SCT072 BKN130 17/09 Q1012 TEMPO SHRA SCT015TCU BKN080
  • 191100Z AUTO 35010KT 310V030 9999 FEW026 BKN130 16/09 Q1011 TEMPO SHRA SCT015TCU BKN080
  • 191030Z AUTO 36009KT 320V040 9999 FEW024 OVC140 16/09 Q1011 TEMPO SHRA SCT015TCU BKN080
  • 191000Z AUTO 35011KT CAVOK 15/08 Q1011 TEMPO SHRA SCT015TCU BKN080

TAF TAF LFRB
Valido dal 19 a 12 ore il 20 a 18 ore UTC


191100Z 1912/2018 34008KT 9999 SCT025 BKN130
PROB30
TEMPO 1912/1918 SHRA SCT015TCU
TEMPO 2000/2007 3000 BR OVC005
ATIS : +33 2 98 32 02 71
Nessun NOTAM noto per questo aeroporto.



MetMap, La meteo Aeronautica in un colpo d'occhio ! - Copyright ORBIFLY Dicembre 2007 - Disclaimer

ORBIFLY MET'MAP TEAM :

Programmazione e sviluppo : Alexandra Zaïnal
Concezione e sviluppo : Baudouin d'Aumeries
Co-Programmazione e sviluppo : Marc-Olivier Méhu
Supporto tecnico e logistico : Manuel Goepfert
Aiuto per la traduzione : Arnaldo La Scala

Contatto : metmap@orbifly.com




FONTI E CREDITI :

   NOAA